createdAt,value
2018-08-10T00:00:17.724Z,20.80
2018-08-10T00:02:45.914Z,20.80
2018-08-10T00:05:13.911Z,20.80
2018-08-10T00:07:41.951Z,20.80
2018-08-10T00:10:12.117Z,20.70
2018-08-10T00:12:40.107Z,20.70
2018-08-10T00:15:09.187Z,20.70
2018-08-10T00:17:37.705Z,20.60
2018-08-10T00:20:08.877Z,20.60
2018-08-10T00:22:36.891Z,20.60
2018-08-10T00:25:07.002Z,20.50
2018-08-10T00:27:35.004Z,20.60
2018-08-10T00:30:03.125Z,20.50
2018-08-10T00:32:31.077Z,20.50
2018-08-10T00:34:59.079Z,20.50
2018-08-10T00:37:27.681Z,20.50
2018-08-10T00:39:55.664Z,20.50
2018-08-10T00:42:23.671Z,20.50
2018-08-10T00:44:51.784Z,20.40
2018-08-10T00:47:19.760Z,20.50
2018-08-10T00:49:47.731Z,20.50
2018-08-10T00:52:15.680Z,20.40
2018-08-10T00:54:43.632Z,20.40
2018-08-10T00:57:11.611Z,20.40
2018-08-10T00:59:39.627Z,20.20
2018-08-10T01:02:07.622Z,20.20
2018-08-10T01:04:35.572Z,20.20
2018-08-10T01:07:03.568Z,20.20
2018-08-10T01:09:31.527Z,20.10
2018-08-10T01:11:59.527Z,20.00
2018-08-10T01:14:28.386Z,19.90
2018-08-10T01:16:56.357Z,19.80
2018-08-10T01:19:24.435Z,19.80
2018-08-10T01:21:52.274Z,19.50
2018-08-10T01:24:20.281Z,19.60
2018-08-10T01:26:48.239Z,19.40
2018-08-10T01:29:16.207Z,19.30
2018-08-10T01:31:44.225Z,19.30
2018-08-10T01:34:12.198Z,19.40
2018-08-10T01:36:40.153Z,19.30
2018-08-10T01:39:09.180Z,19.30
2018-08-10T01:41:37.405Z,19.50
2018-08-10T01:44:06.107Z,19.70
2018-08-10T01:46:34.088Z,19.90
2018-08-10T01:49:02.045Z,19.70
2018-08-10T01:51:30.083Z,20.10
2018-08-10T01:53:59.082Z,19.90
2018-08-10T01:56:27.032Z,20.10
2018-08-10T01:58:55.001Z,20.00
2018-08-10T02:01:23.008Z,19.90
2018-08-10T02:03:50.962Z,20.10
2018-08-10T02:06:18.929Z,20.20
2018-08-10T02:08:46.852Z,20.00
2018-08-10T02:11:14.843Z,19.90
2018-08-10T02:13:42.816Z,19.80
2018-08-10T02:16:10.804Z,19.50
2018-08-10T02:18:38.804Z,19.70
2018-08-10T02:21:07.125Z,19.80
2018-08-10T02:23:35.144Z,19.70
2018-08-10T02:26:03.108Z,19.50
2018-08-10T02:28:31.038Z,19.70
2018-08-10T02:30:59.921Z,19.60
2018-08-10T02:33:27.926Z,19.60
2018-08-10T02:35:55.898Z,19.30
2018-08-10T02:38:23.888Z,19.20
2018-08-10T02:40:51.894Z,19.30
2018-08-10T02:43:19.840Z,19.50
2018-08-10T02:45:47.812Z,19.60
2018-08-10T02:48:15.802Z,19.70
2018-08-10T02:50:43.800Z,19.20
2018-08-10T02:53:11.776Z,19.00
2018-08-10T02:55:39.806Z,19.00
2018-08-10T02:58:08.172Z,18.80
2018-08-10T03:00:36.091Z,18.70
2018-08-10T03:03:04.034Z,18.80
2018-08-10T03:05:32.016Z,18.90
2018-08-10T03:08:00.619Z,18.90
2018-08-10T03:10:28.592Z,18.90
2018-08-10T03:12:56.586Z,19.00
2018-08-10T03:15:24.553Z,18.90
2018-08-10T03:17:52.500Z,18.80
2018-08-10T03:20:20.520Z,18.80
2018-08-10T03:22:48.469Z,18.60
2018-08-10T03:25:16.458Z,18.70
2018-08-10T03:27:44.453Z,18.50
2018-08-10T03:30:13.037Z,18.60
2018-08-10T03:32:41.012Z,18.70
2018-08-10T03:35:08.966Z,18.80
2018-08-10T03:37:37.505Z,18.70
2018-08-10T03:40:07.807Z,18.60
2018-08-10T03:42:35.768Z,18.70
2018-08-10T03:45:04.349Z,18.60
2018-08-10T03:47:32.317Z,18.70
2018-08-10T03:50:00.275Z,18.80
2018-08-10T03:52:28.257Z,19.10
2018-08-10T03:54:56.228Z,19.00
2018-08-10T03:57:24.300Z,19.20
2018-08-10T03:59:52.291Z,19.30
2018-08-10T04:02:20.296Z,19.10
2018-08-10T04:04:48.288Z,19.00
2018-08-10T04:07:16.284Z,18.80
2018-08-10T04:09:44.258Z,18.70
2018-08-10T04:12:12.235Z,18.50
2018-08-10T04:14:40.250Z,18.70
2018-08-10T04:17:13.400Z,18.70
2018-08-10T04:19:41.401Z,18.30
2018-08-10T04:22:09.425Z,18.60
2018-08-10T04:24:37.433Z,18.70
2018-08-10T04:27:05.401Z,18.70
2018-08-10T04:29:33.363Z,18.70
2018-08-10T04:32:02.262Z,18.60
2018-08-10T04:34:30.248Z,18.40
2018-08-10T04:36:58.250Z,18.60
2018-08-10T04:39:26.241Z,18.60
2018-08-10T04:41:54.224Z,18.90
2018-08-10T04:44:22.184Z,19.10
2018-08-10T04:46:50.155Z,18.70
2018-08-10T04:49:18.160Z,18.50
2018-08-10T04:51:46.177Z,18.50
2018-08-10T04:54:14.119Z,18.70
2018-08-10T04:56:42.109Z,18.90
2018-08-10T04:59:10.092Z,18.70
2018-08-10T05:01:38.115Z,18.70
2018-08-10T05:04:06.486Z,18.70
2018-08-10T05:06:34.450Z,18.80
2018-08-10T05:09:02.887Z,18.50
2018-08-10T05:11:30.860Z,18.60
2018-08-10T05:13:58.828Z,18.60
2018-08-10T05:16:26.865Z,18.50
2018-08-10T05:18:54.872Z,18.50
2018-08-10T05:21:22.876Z,18.60
2018-08-10T05:23:50.840Z,18.50
2018-08-10T05:26:18.796Z,18.60
2018-08-10T05:28:46.775Z,18.70
2018-08-10T05:31:14.759Z,18.60
2018-08-10T05:33:42.760Z,18.60
2018-08-10T05:36:10.724Z,18.60
2018-08-10T05:38:38.732Z,18.70
2018-08-10T05:41:06.798Z,18.80
2018-08-10T05:43:35.380Z,18.80
2018-08-10T05:46:03.661Z,18.70
2018-08-10T05:48:35.943Z,18.70
2018-08-10T05:51:03.977Z,18.70
2018-08-10T05:53:31.952Z,18.50
2018-08-10T05:55:59.953Z,18.60
2018-08-10T05:58:28.216Z,18.80
2018-08-10T06:00:56.361Z,18.60
2018-08-10T06:03:24.841Z,18.70
2018-08-10T06:05:52.784Z,18.80
2018-08-10T06:08:20.776Z,18.50
2018-08-10T06:10:48.757Z,18.60
2018-08-10T06:13:16.903Z,18.50
2018-08-10T06:15:44.900Z,18.80
2018-08-10T06:18:12.912Z,18.60
2018-08-10T06:20:40.871Z,18.50
2018-08-10T06:23:08.863Z,18.60
2018-08-10T06:25:36.911Z,18.70
2018-08-10T06:28:04.999Z,18.70
2018-08-10T06:30:32.982Z,18.50
2018-08-10T06:33:01.041Z,18.80
2018-08-10T06:35:29.001Z,18.60
2018-08-10T06:37:56.962Z,18.60
2018-08-10T06:40:25.037Z,18.70
2018-08-10T06:42:53.030Z,18.60
2018-08-10T06:45:21.118Z,18.80
2018-08-10T06:47:49.001Z,18.60
2018-08-10T06:50:17.053Z,18.80
2018-08-10T06:55:19.501Z,18.70
2018-08-10T06:57:47.476Z,18.80
2018-08-10T07:00:15.475Z,18.80
2018-08-10T07:02:43.464Z,19.00
2018-08-10T07:05:11.483Z,19.10
2018-08-10T07:07:39.595Z,19.00
2018-08-10T07:10:08.154Z,19.00
2018-08-10T07:12:36.227Z,18.90
2018-08-10T07:15:04.941Z,18.70
2018-08-10T07:17:32.988Z,18.60
2018-08-10T07:20:00.987Z,18.50
2018-08-10T07:22:28.974Z,18.60
2018-08-10T07:24:56.968Z,18.70
2018-08-10T07:27:25.074Z,18.70
2018-08-10T07:29:53.051Z,18.70
2018-08-10T07:32:20.983Z,18.70
2018-08-10T07:34:48.965Z,18.50
2018-08-10T07:37:16.924Z,18.60
2018-08-10T07:39:44.888Z,18.70
2018-08-10T07:42:12.843Z,18.70
2018-08-10T07:44:40.913Z,18.80
2018-08-10T07:47:08.987Z,18.90
2018-08-10T07:49:37.983Z,19.00
2018-08-10T07:52:06.083Z,18.90
2018-08-10T07:54:34.026Z,18.90
2018-08-10T07:57:02.048Z,19.00
2018-08-10T07:59:30.003Z,19.00
2018-08-10T08:01:58.057Z,18.90
2018-08-10T08:04:26.024Z,18.80
2018-08-10T08:06:54.051Z,19.00
2018-08-10T08:09:22.004Z,18.80
2018-08-10T08:11:50.148Z,19.10
2018-08-10T08:14:18.141Z,19.00
2018-08-10T08:16:46.236Z,18.90
2018-08-10T08:19:14.221Z,19.20
2018-08-10T08:21:53.978Z,18.90
2018-08-10T08:24:22.051Z,19.00
2018-08-10T08:26:50.011Z,19.30
2018-08-10T08:29:18.107Z,19.30
2018-08-10T08:31:46.076Z,19.60
2018-08-10T08:34:14.049Z,19.70
2018-08-10T08:36:42.048Z,19.10
2018-08-10T08:39:27.632Z,19.30
2018-08-10T08:41:55.686Z,19.50
2018-08-10T08:44:36.729Z,19.80
2018-08-10T08:47:05.821Z,19.90
2018-08-10T08:49:34.526Z,19.90
2018-08-10T08:52:02.621Z,19.70
2018-08-10T08:55:35.920Z,19.70
2018-08-10T08:58:04.099Z,19.90
2018-08-10T09:00:32.174Z,20.00
2018-08-10T09:03:00.193Z,20.10
2018-08-10T09:05:28.216Z,20.20
2018-08-10T09:07:56.420Z,19.90
2018-08-10T09:10:24.436Z,20.00
2018-08-10T09:12:52.421Z,20.20
2018-08-10T09:15:21.481Z,20.10
2018-08-10T09:17:49.682Z,20.20
2018-08-10T09:20:17.717Z,20.40
2018-08-10T09:22:45.672Z,20.50
2018-08-10T09:25:16.404Z,20.30
2018-08-10T09:27:44.405Z,20.40
2018-08-10T09:30:14.717Z,20.40
2018-08-10T09:32:42.938Z,20.50
2018-08-10T09:35:12.082Z,20.60
2018-08-10T09:37:46.586Z,20.80
2018-08-10T09:40:18.342Z,19.80
2018-08-10T09:42:46.706Z,19.60
2018-08-10T09:45:15.492Z,20.00
2018-08-10T09:47:44.425Z,20.20
2018-08-10T09:50:13.643Z,20.30
2018-08-10T09:52:51.803Z,20.50
2018-08-10T09:55:28.371Z,20.70
2018-08-10T09:58:00.813Z,20.50
2018-08-10T10:00:34.242Z,20.60
2018-08-10T10:03:07.767Z,20.60
2018-08-10T10:05:36.333Z,20.60
2018-08-10T10:08:04.622Z,20.80
2018-08-10T10:10:32.592Z,20.90
2018-08-10T10:13:00.555Z,20.90
2018-08-10T10:15:28.519Z,20.80
2018-08-10T10:17:56.470Z,20.90
2018-08-10T10:20:24.452Z,21.00
2018-08-10T10:22:52.651Z,20.90
2018-08-10T10:25:20.636Z,20.70
2018-08-10T10:27:48.684Z,21.00
2018-08-10T10:30:16.669Z,20.90
2018-08-10T10:32:44.877Z,20.70
2018-08-10T10:35:12.804Z,20.60
2018-08-10T10:37:41.050Z,21.00
2018-08-10T10:40:10.007Z,20.90
2018-08-10T10:42:38.044Z,21.20
2018-08-10T10:45:15.102Z,21.40
2018-08-10T10:47:44.500Z,21.50
2018-08-10T10:50:13.286Z,20.80
2018-08-10T10:52:41.269Z,21.10
2018-08-10T10:55:09.748Z,21.50
2018-08-10T10:57:38.820Z,21.50
2018-08-10T11:00:12.284Z,21.50
2018-08-10T11:02:40.405Z,21.50
2018-08-10T11:05:08.669Z,21.40
2018-08-10T11:07:37.399Z,21.60
2018-08-10T11:10:06.962Z,21.40
2018-08-10T11:12:34.949Z,21.40
2018-08-10T11:15:02.933Z,21.60
2018-08-10T11:17:30.948Z,21.70
2018-08-10T11:19:58.973Z,21.80
2018-08-10T11:22:26.908Z,21.70
2018-08-10T11:24:54.909Z,21.60
2018-08-10T11:27:23.004Z,21.60
2018-08-10T11:29:50.937Z,21.50
2018-08-10T11:32:18.906Z,21.80
2018-08-10T11:34:46.861Z,21.90
2018-08-10T11:37:14.926Z,22.30
2018-08-10T11:39:42.982Z,22.50
2018-08-10T11:42:10.954Z,22.60
2018-08-10T11:44:39.148Z,22.80
2018-08-10T11:47:07.145Z,22.70
2018-08-10T11:49:35.205Z,22.60
2018-08-10T11:52:03.148Z,22.80
2018-08-10T11:54:31.174Z,22.90
2018-08-10T11:56:59.260Z,22.90
2018-08-10T11:59:27.229Z,23.30
2018-08-10T12:01:55.440Z,23.30
2018-08-10T12:04:23.374Z,23.60
2018-08-10T12:06:51.420Z,24.60
2018-08-10T12:09:19.411Z,25.10
2018-08-10T12:11:47.460Z,26.10
2018-08-10T12:14:15.379Z,26.80
2018-08-10T12:16:43.360Z,25.50
2018-08-10T12:19:11.453Z,26.40
2018-08-10T12:21:39.572Z,27.10
2018-08-10T12:24:07.625Z,26.20
2018-08-10T12:26:35.688Z,26.20
2018-08-10T12:29:03.770Z,27.10
2018-08-10T12:31:31.832Z,28.60
2018-08-10T12:33:59.807Z,29.90
2018-08-10T12:36:27.832Z,28.90
2018-08-10T12:38:55.814Z,28.30
2018-08-10T12:41:23.795Z,29.20
2018-08-10T12:43:51.803Z,28.60
2018-08-10T12:46:19.802Z,27.70
2018-08-10T12:48:47.802Z,25.60
2018-08-10T12:51:15.791Z,26.20
2018-08-10T12:53:43.808Z,27.50
2018-08-10T12:56:11.776Z,27.40
2018-08-10T12:58:40.186Z,27.50
2018-08-10T13:01:08.265Z,28.70
2018-08-10T13:03:36.354Z,28.80
2018-08-10T13:06:04.484Z,28.20
2018-08-10T13:08:32.501Z,27.40
2018-08-10T13:11:00.477Z,28.20
2018-08-10T13:13:28.503Z,27.80
2018-08-10T13:15:56.455Z,28.10
2018-08-10T13:18:24.464Z,28.60
2018-08-10T13:20:52.417Z,31.10
2018-08-10T13:23:20.341Z,27.90
2018-08-10T13:25:48.435Z,29.20
2018-08-10T13:28:16.516Z,29.50
2018-08-10T13:30:44.484Z,29.20
2018-08-10T13:33:12.470Z,27.60
2018-08-10T13:35:41.100Z,26.10
2018-08-10T13:38:09.153Z,27.70
2018-08-10T13:40:37.251Z,28.30
2018-08-10T13:43:05.320Z,27.90
2018-08-10T13:45:33.297Z,28.90
2018-08-10T13:48:01.289Z,27.80
2018-08-10T13:50:30.322Z,25.50
2018-08-10T13:52:58.709Z,25.30
2018-08-10T13:55:27.287Z,25.90
2018-08-10T13:57:55.588Z,26.20
2018-08-10T14:00:24.903Z,25.00
2018-08-10T14:02:54.603Z,26.10
2018-08-10T14:05:23.419Z,27.10
2018-08-10T14:07:52.093Z,26.90
2018-08-10T14:10:20.112Z,28.30
2018-08-10T14:12:48.113Z,29.40
2018-08-10T14:15:16.128Z,27.40
2018-08-10T14:17:44.152Z,26.30
2018-08-10T14:20:12.373Z,27.20
2018-08-10T14:22:40.493Z,26.80
2018-08-10T14:25:09.705Z,28.80
2018-08-10T14:27:37.864Z,29.50
2018-08-10T14:30:09.143Z,30.30
2018-08-10T14:32:37.367Z,31.00
2018-08-10T14:35:05.771Z,31.30
2018-08-10T14:37:34.972Z,32.40
2018-08-10T14:40:03.006Z,30.60
2018-08-10T14:42:31.032Z,28.90
2018-08-10T14:44:59.088Z,27.80
2018-08-10T14:47:27.068Z,27.10
2018-08-10T14:49:55.072Z,28.20
2018-08-10T14:52:23.107Z,29.40
2018-08-10T14:54:51.092Z,29.70
2018-08-10T14:57:19.074Z,29.50
2018-08-10T14:59:47.048Z,27.70
2018-08-10T15:02:15.011Z,27.80
2018-08-10T15:04:42.952Z,27.50
2018-08-10T15:07:10.923Z,28.80
2018-08-10T15:09:38.980Z,27.40
2018-08-10T15:12:07.061Z,26.90
2018-08-10T15:14:35.118Z,26.30
2018-08-10T15:17:03.094Z,26.10
2018-08-10T15:19:31.099Z,24.70
2018-08-10T15:21:59.059Z,25.00
2018-08-10T15:24:27.096Z,25.20
2018-08-10T15:26:55.172Z,25.30
2018-08-10T15:29:23.151Z,25.00
2018-08-10T15:31:51.178Z,25.30
2018-08-10T15:34:19.147Z,25.90
2018-08-10T15:36:47.272Z,26.80
2018-08-10T15:39:15.268Z,27.40
2018-08-10T15:41:43.286Z,26.60
2018-08-10T15:44:11.264Z,26.90
2018-08-10T15:46:39.228Z,26.90
2018-08-10T15:49:07.244Z,27.40
2018-08-10T15:51:35.219Z,27.60
2018-08-10T15:54:03.193Z,27.50
2018-08-10T15:56:31.279Z,27.70
2018-08-10T15:58:59.322Z,27.80
2018-08-10T16:01:27.367Z,27.70
2018-08-10T16:03:55.523Z,27.80
2018-08-10T16:06:23.548Z,27.60
2018-08-10T16:08:51.633Z,27.40
2018-08-10T16:11:19.677Z,27.90
2018-08-10T16:13:47.659Z,28.20
2018-08-10T16:16:15.682Z,28.00
2018-08-10T16:18:43.809Z,27.90
2018-08-10T16:21:11.960Z,27.30
2018-08-10T16:23:39.929Z,26.40
2018-08-10T16:26:07.927Z,27.30
2018-08-10T16:28:36.071Z,27.30
2018-08-10T16:31:04.111Z,27.40
2018-08-10T16:33:32.109Z,27.10
2018-08-10T16:36:00.189Z,27.00
2018-08-10T16:38:28.199Z,27.10
2018-08-10T16:40:56.175Z,27.70
2018-08-10T16:43:24.187Z,26.60
2018-08-10T16:45:52.179Z,26.10
2018-08-10T16:48:20.204Z,26.90
2018-08-10T16:50:48.294Z,27.20
2018-08-10T16:53:16.332Z,27.40
2018-08-10T16:55:44.493Z,27.70
2018-08-10T16:58:12.467Z,27.40
2018-08-10T17:00:40.460Z,27.60
2018-08-10T17:03:08.755Z,27.60
2018-08-10T17:05:36.797Z,27.60
2018-08-10T17:08:04.843Z,27.80
2018-08-10T17:10:32.836Z,27.20
2018-08-10T17:13:01.875Z,26.90
2018-08-10T17:15:29.889Z,26.90
2018-08-10T17:17:57.922Z,26.90
2018-08-10T17:20:25.962Z,26.80
2018-08-10T17:22:54.084Z,26.90
2018-08-10T17:25:22.075Z,26.90
2018-08-10T17:30:49.017Z,27.00
2018-08-10T17:33:17.144Z,26.50
2018-08-10T17:35:45.292Z,26.30
2018-08-10T17:38:13.256Z,26.40
2018-08-10T17:40:41.259Z,26.40
2018-08-10T17:43:09.276Z,26.30
2018-08-10T17:45:37.290Z,26.20
2018-08-10T17:48:05.821Z,26.10
2018-08-10T17:50:33.831Z,26.00
2018-08-10T17:53:01.909Z,25.80
2018-08-10T17:55:29.819Z,25.90
2018-08-10T17:57:57.840Z,25.80
2018-08-10T18:00:27.835Z,26.00
2018-08-10T18:02:55.878Z,26.10
2018-08-10T18:05:23.899Z,26.20
2018-08-10T18:07:51.882Z,26.10
2018-08-10T18:10:20.085Z,26.20
2018-08-10T18:12:48.077Z,25.80
2018-08-10T18:15:17.394Z,25.60
2018-08-10T18:17:46.572Z,25.30
2018-08-10T18:20:16.912Z,25.10
2018-08-10T18:22:46.163Z,24.90
2018-08-10T18:25:15.341Z,24.60
2018-08-10T18:27:43.730Z,24.50
2018-08-10T18:30:15.296Z,24.40
2018-08-10T18:32:43.481Z,24.30
2018-08-10T18:35:11.788Z,24.30
2018-08-10T18:37:40.874Z,24.30
2018-08-10T18:40:10.903Z,24.00
2018-08-10T18:42:39.545Z,24.00
2018-08-10T18:45:08.374Z,23.90
2018-08-10T18:47:36.824Z,24.00
2018-08-10T18:50:05.531Z,23.90
2018-08-10T18:52:33.981Z,23.90
2018-08-10T18:55:01.995Z,23.80
2018-08-10T18:57:29.955Z,23.70
2018-08-10T18:59:58.021Z,23.70
2018-08-10T19:02:26.106Z,23.70
2018-08-10T19:04:54.172Z,23.70
2018-08-10T19:07:22.164Z,23.50
2018-08-10T19:09:50.260Z,23.40
2018-08-10T19:12:18.297Z,23.40
2018-08-10T19:14:46.958Z,23.30
2018-08-10T19:17:15.123Z,23.30
2018-08-10T19:19:44.235Z,23.20
2018-08-10T19:22:12.203Z,23.20
2018-08-10T19:24:40.328Z,23.20
2018-08-10T19:27:08.348Z,23.10
2018-08-10T19:29:36.385Z,23.00
2018-08-10T19:32:04.392Z,22.90
2018-08-10T19:34:32.415Z,22.90
2018-08-10T19:37:00.412Z,22.70
2018-08-10T19:39:28.601Z,22.60
2018-08-10T19:41:56.555Z,22.50
2018-08-10T19:44:24.670Z,22.40
2018-08-10T19:46:52.745Z,22.30
2018-08-10T19:49:20.768Z,22.20
2018-08-10T19:51:48.764Z,22.10
2018-08-10T19:54:17.726Z,21.90
2018-08-10T19:56:45.721Z,21.90
2018-08-10T19:59:13.709Z,21.80
2018-08-10T20:01:41.739Z,21.80
2018-08-10T20:04:09.856Z,21.80
2018-08-10T20:06:37.980Z,21.80
2018-08-10T20:09:08.837Z,21.80
2018-08-10T20:11:36.858Z,21.70
2018-08-10T20:14:04.886Z,21.60
2018-08-10T20:16:32.926Z,21.60
2018-08-10T20:19:00.932Z,21.60
2018-08-10T20:21:28.964Z,21.50
2018-08-10T20:23:57.141Z,21.40
2018-08-10T20:26:25.183Z,21.30
2018-08-10T20:28:53.280Z,21.30
2018-08-10T20:31:21.312Z,21.20
2018-08-10T20:33:49.349Z,21.10
2018-08-10T20:36:18.323Z,21.00
2018-08-10T20:38:46.304Z,21.00
2018-08-10T20:41:14.285Z,20.90
2018-08-10T20:43:42.269Z,20.90
2018-08-10T20:46:10.311Z,20.80
2018-08-10T20:48:38.418Z,20.80
2018-08-10T20:51:06.438Z,20.70
2018-08-10T20:53:34.409Z,20.70
2018-08-10T20:56:02.534Z,20.70
2018-08-10T20:58:30.470Z,20.80
2018-08-10T21:00:58.424Z,20.70
2018-08-10T21:03:26.416Z,20.50
2018-08-10T21:05:54.382Z,20.50
2018-08-10T21:08:23.266Z,20.40
2018-08-10T21:10:51.183Z,20.40
2018-08-10T21:13:19.257Z,20.20
2018-08-10T21:15:47.317Z,20.10
2018-08-10T21:18:15.329Z,20.00
2018-08-10T21:20:43.380Z,19.80
2018-08-10T21:23:11.364Z,19.80
2018-08-10T21:25:39.351Z,19.70
2018-08-10T21:28:07.360Z,19.70
2018-08-10T21:30:35.382Z,19.70
2018-08-10T21:33:03.365Z,19.80
2018-08-10T21:35:31.379Z,19.70
2018-08-10T21:38:01.436Z,19.70
2018-08-10T21:40:29.422Z,19.70
2018-08-10T21:42:57.409Z,19.60
2018-08-10T21:45:25.412Z,19.40
2018-08-10T21:47:53.410Z,19.40
2018-08-10T21:50:21.411Z,19.40
2018-08-10T21:52:49.348Z,19.30
2018-08-10T21:55:17.358Z,19.40
2018-08-10T21:57:45.393Z,19.30
2018-08-10T22:00:21.974Z,19.30
2018-08-10T22:02:50.135Z,19.10
2018-08-10T22:05:18.153Z,19.10
2018-08-10T22:07:46.177Z,19.10
2018-08-10T22:10:14.299Z,19.00
2018-08-10T22:12:47.436Z,19.00
2018-08-10T22:15:21.549Z,19.10
2018-08-10T22:17:54.991Z,19.20
2018-08-10T22:20:23.017Z,19.20
2018-08-10T22:22:51.019Z,19.20
2018-08-10T22:25:19.119Z,19.20
2018-08-10T22:27:47.134Z,19.10
2018-08-10T22:30:15.164Z,19.10
2018-08-10T22:32:43.151Z,19.10
2018-08-10T22:35:11.228Z,19.10
2018-08-10T22:37:39.241Z,19.10
2018-08-10T22:40:07.693Z,19.10
2018-08-10T22:42:35.874Z,19.10
2018-08-10T22:45:04.349Z,19.00
2018-08-10T22:47:32.427Z,18.90
2018-08-10T22:50:00.471Z,18.90
2018-08-10T22:52:28.545Z,18.90
2018-08-10T22:54:56.743Z,18.90
2018-08-10T22:57:24.713Z,18.90
2018-08-10T22:59:52.727Z,18.80
2018-08-10T23:02:20.703Z,18.70
2018-08-10T23:04:48.736Z,18.60
2018-08-10T23:07:16.730Z,18.70
2018-08-10T23:09:44.709Z,18.60
2018-08-10T23:12:12.836Z,18.60
2018-08-10T23:14:40.917Z,18.60
2018-08-10T23:17:08.790Z,18.60
2018-08-10T23:19:36.846Z,18.50
2018-08-10T23:22:05.540Z,18.40
2018-08-10T23:24:33.600Z,18.30
2018-08-10T23:27:01.636Z,18.30
2018-08-10T23:29:29.652Z,18.20
2018-08-10T23:31:57.632Z,18.20
2018-08-10T23:34:25.639Z,18.20
2018-08-10T23:36:53.676Z,18.20
2018-08-10T23:39:21.813Z,18.20
2018-08-10T23:41:49.906Z,18.30
2018-08-10T23:44:17.992Z,18.30
2018-08-10T23:46:46.068Z,18.20
2018-08-10T23:49:14.080Z,18.20
2018-08-10T23:51:42.068Z,18.20
2018-08-10T23:54:10.142Z,18.10
2018-08-10T23:56:39.205Z,18.00
2018-08-10T23:59:07.176Z,18.10
